<?xml version="1.0" encoding="utf-8"?>
<gpx xmlns:xsi="http://www.w3.org/2001/XMLSchema-instance" xmlns:xsd="http://www.w3.org/2001/XMLSchema" version="1.1" creator="Shapelink.com" xmlns="http://www.topografix.com/GPX/1/1" xmlns:gpxtpx="http://www.garmin.com/xmlschemas/TrackPointExtension/v1">
  <metadata>
    <name>Kører 11.48 km, 2020-02-18</name>
    <desc></desc>
    <author><name>Per Rooth</name></author> 
    <time>2020-02-18T05:33:28Z</time>
  </metadata>
  <trk>
    <name>Kører 11.48 km, 2020-02-18</name>
    <trkseg>
      <trkpt lat="56.873153367514" lon="14.792926637364">
        <ele>176.6</ele>
        <time>2020-02-18T05:33:28Z</time>
      </trkpt>
      <trkpt lat="56.873210615891" lon="14.79292278169">
        <ele>177.8</ele>
        <time>2020-02-18T05:33:31Z</time>
      </trkpt>
      <trkpt lat="56.87302294515" lon="14.792869053711">
        <ele>177.4</ele>
        <time>2020-02-18T05:33:40Z</time>
      </trkpt>
      <trkpt lat="56.872830077631" lon="14.792937282377">
        <ele>177</ele>
        <time>2020-02-18T05:33:49Z</time>
      </trkpt>
      <trkpt lat="56.872647603668" lon="14.792979275696">
        <ele>177</ele>
        <time>2020-02-18T05:33:57Z</time>
      </trkpt>
      <trkpt lat="56.87258457178" lon="14.792967792493">
        <ele>177</ele>
        <time>2020-02-18T05:34:00Z</time>
      </trkpt>
      <trkpt lat="56.872409557708" lon="14.792840052337">
        <ele>177.2</ele>
        <time>2020-02-18T05:34:09Z</time>
      </trkpt>
      <trkpt lat="56.872215097628" lon="14.792848685694">
        <ele>178.4</ele>
        <time>2020-02-18T05:34:17Z</time>
      </trkpt>
      <trkpt lat="56.872133457922" lon="14.792871149186">
        <ele>178</ele>
        <time>2020-02-18T05:34:21Z</time>
      </trkpt>
      <trkpt lat="56.871947631199" lon="14.792940970413">
        <ele>177.8</ele>
        <time>2020-02-18T05:34:30Z</time>
      </trkpt>
      <trkpt lat="56.871785106158" lon="14.793097628124">
        <ele>177</ele>
        <time>2020-02-18T05:34:36Z</time>
      </trkpt>
      <trkpt lat="56.871736072043" lon="14.793131910095">
        <ele>176.8</ele>
        <time>2020-02-18T05:34:38Z</time>
      </trkpt>
      <trkpt lat="56.87171033961" lon="14.79314490204">
        <ele>176.8</ele>
        <time>2020-02-18T05:34:39Z</time>
      </trkpt>
      <trkpt lat="56.871528871475" lon="14.793148170981">
        <ele>177</ele>
        <time>2020-02-18T05:34:47Z</time>
      </trkpt>
      <trkpt lat="56.871342038924" lon="14.793078768849">
        <ele>176.4</ele>
        <time>2020-02-18T05:34:55Z</time>
      </trkpt>
      <trkpt lat="56.871272050059" lon="14.793057395004">
        <ele>176.4</ele>
        <time>2020-02-18T05:34:58Z</time>
      </trkpt>
      <trkpt lat="56.871120421488" lon="14.79299067508">
        <ele>175.6</ele>
        <time>2020-02-18T05:35:04Z</time>
      </trkpt>
      <trkpt lat="56.870959908103" lon="14.792892858307">
        <ele>174.6</ele>
        <time>2020-02-18T05:35:10Z</time>
      </trkpt>
      <trkpt lat="56.870756311752" lon="14.792825635469">
        <ele>174.8</ele>
        <time>2020-02-18T05:35:17Z</time>
      </trkpt>
      <trkpt lat="56.870673917675" lon="14.792794203344">
        <ele>174.6</ele>
        <time>2020-02-18T05:35:20Z</time>
      </trkpt>
      <trkpt lat="56.870480798699" lon="14.792717844235">
        <ele>173.6</ele>
        <time>2020-02-18T05:35:27Z</time>
      </trkpt>
      <trkpt lat="56.870458754302" lon="14.792709378516">
        <ele>173.6</ele>
        <time>2020-02-18T05:35:28Z</time>
      </trkpt>
      <trkpt lat="56.87026530005" lon="14.792593875934">
        <ele>172.6</ele>
        <time>2020-02-18T05:35:36Z</time>
      </trkpt>
      <trkpt lat="56.870240908721" lon="14.792578453238">
        <ele>172.6</ele>
        <time>2020-02-18T05:35:37Z</time>
      </trkpt>
      <trkpt lat="56.870096907679" lon="14.792602006377">
        <ele>172.4</ele>
        <time>2020-02-18T05:35:43Z</time>
      </trkpt>
      <trkpt lat="56.870040162216" lon="14.792706444851">
        <ele>172.2</ele>
        <time>2020-02-18T05:35:46Z</time>
      </trkpt>
      <trkpt lat="56.869910997137" lon="14.792939964585">
        <ele>172</ele>
        <time>2020-02-18T05:35:53Z</time>
      </trkpt>
      <trkpt lat="56.869788453759" lon="14.793220842054">
        <ele>171.8</ele>
        <time>2020-02-18T05:36:01Z</time>
      </trkpt>
      <trkpt lat="56.869656857929" lon="14.793466767">
        <ele>171.4</ele>
        <time>2020-02-18T05:36:07Z</time>
      </trkpt>
      <trkpt lat="56.869542109718" lon="14.793708836272">
        <ele>171.6</ele>
        <time>2020-02-18T05:36:14Z</time>
      </trkpt>
      <trkpt lat="56.869521909339" lon="14.793704393865">
        <ele>171.2</ele>
        <time>2020-02-18T05:36:15Z</time>
      </trkpt>
      <trkpt lat="56.869467678446" lon="14.793619149942">
        <ele>170.4</ele>
        <time>2020-02-18T05:36:18Z</time>
      </trkpt>
      <trkpt lat="56.869417219408" lon="14.793504653188">
        <ele>169.6</ele>
        <time>2020-02-18T05:36:21Z</time>
      </trkpt>
      <trkpt lat="56.86937095132" lon="14.793431143925">
        <ele>169.4</ele>
        <time>2020-02-18T05:36:23Z</time>
      </trkpt>
      <trkpt lat="56.869207252813" lon="14.793279934449">
        <ele>169.2</ele>
        <time>2020-02-18T05:36:29Z</time>
      </trkpt>
      <trkpt lat="56.869096611733" lon="14.793260823717">
        <ele>168.8</ele>
        <time>2020-02-18T05:36:33Z</time>
      </trkpt>
      <trkpt lat="56.869017905692" lon="14.793565170506">
        <ele>168.6</ele>
        <time>2020-02-18T05:36:40Z</time>
      </trkpt>
      <trkpt lat="56.868954035614" lon="14.793895752642">
        <ele>168.6</ele>
        <time>2020-02-18T05:36:47Z</time>
      </trkpt>
      <trkpt lat="56.868942217135" lon="14.793999520564">
        <ele>168.2</ele>
        <time>2020-02-18T05:36:49Z</time>
      </trkpt>
      <trkpt lat="56.868877760324" lon="14.794308058303">
        <ele>168.2</ele>
        <time>2020-02-18T05:36:55Z</time>
      </trkpt>
      <trkpt lat="56.868806933269" lon="14.794632940747">
        <ele>168.2</ele>
        <time>2020-02-18T05:37:02Z</time>
      </trkpt>
      <trkpt lat="56.868725293563" lon="14.794928318903">
        <ele>168.4</ele>
        <time>2020-02-18T05:37:09Z</time>
      </trkpt>
      <trkpt lat="56.868641223106" lon="14.795232414235">
        <ele>168</ele>
        <time>2020-02-18T05:37:16Z</time>
      </trkpt>
      <trkpt lat="56.868545250351" lon="14.795560984715">
        <ele>168.2</ele>
        <time>2020-02-18T05:37:24Z</time>
      </trkpt>
      <trkpt lat="56.868474004201" lon="14.795866840246">
        <ele>168.2</ele>
        <time>2020-02-18T05:37:31Z</time>
      </trkpt>
      <trkpt lat="56.868412564874" lon="14.796181412953">
        <ele>168.4</ele>
        <time>2020-02-18T05:37:38Z</time>
      </trkpt>
      <trkpt lat="56.868383898776" lon="14.79631912757">
        <ele>168.4</ele>
        <time>2020-02-18T05:37:41Z</time>
      </trkpt>
      <trkpt lat="56.8683165083" lon="14.796661192909">
        <ele>168.2</ele>
        <time>2020-02-18T05:37:48Z</time>
      </trkpt>
      <trkpt lat="56.868247609082" lon="14.796986578267">
        <ele>168.2</ele>
        <time>2020-02-18T05:37:55Z</time>
      </trkpt>
      <trkpt lat="56.868176698208" lon="14.797319507335">
        <ele>167.8</ele>
        <time>2020-02-18T05:38:02Z</time>
      </trkpt>
      <trkpt lat="56.868118527822" lon="14.79766693709">
        <ele>168</ele>
        <time>2020-02-18T05:38:09Z</time>
      </trkpt>
      <trkpt lat="56.868081982738" lon="14.798019731261">
        <ele>167.6</ele>
        <time>2020-02-18T05:38:17Z</time>
      </trkpt>
      <trkpt lat="56.868048538957" lon="14.798388534861">
        <ele>167.6</ele>
        <time>2020-02-18T05:38:25Z</time>
      </trkpt>
      <trkpt lat="56.867989195105" lon="14.798709896907">
        <ele>167.6</ele>
        <time>2020-02-18T05:38:32Z</time>
      </trkpt>
      <trkpt lat="56.867966731613" lon="14.799079203421">
        <ele>167.6</ele>
        <time>2020-02-18T05:38:39Z</time>
      </trkpt>
      <trkpt lat="56.867963714129" lon="14.799239297711">
        <ele>167.2</ele>
        <time>2020-02-18T05:38:42Z</time>
      </trkpt>
      <trkpt lat="56.868034373546" lon="14.799583458525">
        <ele>167.6</ele>
        <time>2020-02-18T05:38:49Z</time>
      </trkpt>
      <trkpt lat="56.868128418464" lon="14.799910604082">
        <ele>167.2</ele>
        <time>2020-02-18T05:38:55Z</time>
      </trkpt>
      <trkpt lat="56.868230593825" lon="14.800187206782">
        <ele>167.2</ele>
        <time>2020-02-18T05:39:01Z</time>
      </trkpt>
      <trkpt lat="56.868330841349" lon="14.800504377878">
        <ele>167</ele>
        <time>2020-02-18T05:39:08Z</time>
      </trkpt>
      <trkpt lat="56.868405021164" lon="14.800825320829">
        <ele>166.8</ele>
        <time>2020-02-18T05:39:15Z</time>
      </trkpt>
      <trkpt lat="56.868435782737" lon="14.800908720734">
        <ele>166.6</ele>
        <time>2020-02-18T05:39:17Z</time>
      </trkpt>
      <trkpt lat="56.868549022206" lon="14.801195968447">
        <ele>166.4</ele>
        <time>2020-02-18T05:39:24Z</time>
      </trkpt>
      <trkpt lat="56.868660585295" lon="14.801475001898">
        <ele>166.6</ele>
        <time>2020-02-18T05:39:31Z</time>
      </trkpt>
      <trkpt lat="56.868775165868" lon="14.801758645394">
        <ele>166.6</ele>
        <time>2020-02-18T05:39:38Z</time>
      </trkpt>
      <trkpt lat="56.868886226043" lon="14.802036840655">
        <ele>166.6</ele>
        <time>2020-02-18T05:39:45Z</time>
      </trkpt>
      <trkpt lat="56.868994184915" lon="14.802358035063">
        <ele>166.8</ele>
        <time>2020-02-18T05:39:51Z</time>
      </trkpt>
      <trkpt lat="56.869099461579" lon="14.802671434304">
        <ele>166.8</ele>
        <time>2020-02-18T05:39:57Z</time>
      </trkpt>
      <trkpt lat="56.869228375201" lon="14.802930937928">
        <ele>166.6</ele>
        <time>2020-02-18T05:40:04Z</time>
      </trkpt>
      <trkpt lat="56.869381344876" lon="14.803081393033">
        <ele>166.6</ele>
        <time>2020-02-18T05:40:11Z</time>
      </trkpt>
      <trkpt lat="56.869460302374" lon="14.803337795354">
        <ele>166.2</ele>
        <time>2020-02-18T05:40:17Z</time>
      </trkpt>
      <trkpt lat="56.869552754731" lon="14.803671478793">
        <ele>166.2</ele>
        <time>2020-02-18T05:40:24Z</time>
      </trkpt>
      <trkpt lat="56.86955116217" lon="14.804019746738">
        <ele>166.2</ele>
        <time>2020-02-18T05:40:30Z</time>
      </trkpt>
      <trkpt lat="56.869505564634" lon="14.804355274195">
        <ele>166</ele>
        <time>2020-02-18T05:40:36Z</time>
      </trkpt>
      <trkpt lat="56.869445801687" lon="14.804710834393">
        <ele>166.2</ele>
        <time>2020-02-18T05:40:43Z</time>
      </trkpt>
      <trkpt lat="56.869324347956" lon="14.804973020225">
        <ele>165.8</ele>
        <time>2020-02-18T05:40:50Z</time>
      </trkpt>
      <trkpt lat="56.869128043858" lon="14.805082152563">
        <ele>166.2</ele>
        <time>2020-02-18T05:40:57Z</time>
      </trkpt>
      <trkpt lat="56.868963088066" lon="14.805237972084">
        <ele>166.6</ele>
        <time>2020-02-18T05:41:04Z</time>
      </trkpt>
      <trkpt lat="56.868934421968" lon="14.805250293477">
        <ele>166.6</ele>
        <time>2020-02-18T05:41:05Z</time>
      </trkpt>
      <trkpt lat="56.868734094558" lon="14.805281390326">
        <ele>165.8</ele>
        <time>2020-02-18T05:41:12Z</time>
      </trkpt>
      <trkpt lat="56.868547429645" lon="14.805278708118">
        <ele>166.4</ele>
        <time>2020-02-18T05:41:21Z</time>
      </trkpt>
      <trkpt lat="56.868334026471" lon="14.805222297931">
        <ele>166.2</ele>
        <time>2020-02-18T05:41:29Z</time>
      </trkpt>
      <trkpt lat="56.868157838933" lon="14.80512263714">
        <ele>166</ele>
        <time>2020-02-18T05:41:36Z</time>
      </trkpt>
      <trkpt lat="56.867994391883" lon="14.804960195918">
        <ele>166.2</ele>
        <time>2020-02-18T05:41:43Z</time>
      </trkpt>
      <trkpt lat="56.867778055044" lon="14.804863049697">
        <ele>166.4</ele>
        <time>2020-02-18T05:41:50Z</time>
      </trkpt>
      <trkpt lat="56.867598850022" lon="14.804780152706">
        <ele>166.2</ele>
        <time>2020-02-18T05:41:57Z</time>
      </trkpt>
      <trkpt lat="56.867420734647" lon="14.804690214919">
        <ele>166</ele>
        <time>2020-02-18T05:42:03Z</time>
      </trkpt>
      <trkpt lat="56.867246726403" lon="14.804588123377">
        <ele>166.4</ele>
        <time>2020-02-18T05:42:10Z</time>
      </trkpt>
      <trkpt lat="56.867169529104" lon="14.804550572465">
        <ele>166.4</ele>
        <time>2020-02-18T05:42:13Z</time>
      </trkpt>
      <trkpt lat="56.866980349621" lon="14.804481170333">
        <ele>166.6</ele>
        <time>2020-02-18T05:42:20Z</time>
      </trkpt>
      <trkpt lat="56.866801982789" lon="14.804408918355">
        <ele>166.6</ele>
        <time>2020-02-18T05:42:26Z</time>
      </trkpt>
      <trkpt lat="56.866592435289" lon="14.804289392461">
        <ele>166.4</ele>
        <time>2020-02-18T05:42:34Z</time>
      </trkpt>
      <trkpt lat="56.866397556114" lon="14.804200963416">
        <ele>166.2</ele>
        <time>2020-02-18T05:42:40Z</time>
      </trkpt>
      <trkpt lat="56.866204437138" lon="14.804130723094">
        <ele>166.6</ele>
        <time>2020-02-18T05:42:47Z</time>
      </trkpt>
      <trkpt lat="56.866029423066" lon="14.80401790272">
        <ele>166.4</ele>
        <time>2020-02-18T05:42:56Z</time>
      </trkpt>
      <trkpt lat="56.865846278551" lon="14.803835428757">
        <ele>165.8</ele>
        <time>2020-02-18T05:43:05Z</time>
      </trkpt>
      <trkpt lat="56.865658859267" lon="14.803716908691">
        <ele>165.4</ele>
        <time>2020-02-18T05:43:12Z</time>
      </trkpt>
      <trkpt lat="56.865463980092" lon="14.803608866">
        <ele>166.4</ele>
        <time>2020-02-18T05:43:20Z</time>
      </trkpt>
      <trkpt lat="56.865419304565" lon="14.80358874944">
        <ele>166.8</ele>
        <time>2020-02-18T05:43:22Z</time>
      </trkpt>
      <trkpt lat="56.865238842258" lon="14.803568381423">
        <ele>166.8</ele>
        <time>2020-02-18T05:43:28Z</time>
      </trkpt>
      <trkpt lat="56.865019571754" lon="14.803550779433">
        <ele>166.8</ele>
        <time>2020-02-18T05:43:33Z</time>
      </trkpt>
      <trkpt lat="56.864881102766" lon="14.803585731956">
        <ele>166.4</ele>
        <time>2020-02-18T05:43:38Z</time>
      </trkpt>
      <trkpt lat="56.864690582179" lon="14.803556395306">
        <ele>166</ele>
        <time>2020-02-18T05:43:43Z</time>
      </trkpt>
      <trkpt lat="56.86449184733" lon="14.803618840461">
        <ele>166.2</ele>
        <time>2020-02-18T05:43:51Z</time>
      </trkpt>
      <trkpt lat="56.864294621223" lon="14.803661169056">
        <ele>166.2</ele>
        <time>2020-02-18T05:43:59Z</time>
      </trkpt>
      <trkpt lat="56.86410208898" lon="14.803669634775">
        <ele>166.4</ele>
        <time>2020-02-18T05:44:04Z</time>
      </trkpt>
      <trkpt lat="56.863896397154" lon="14.803751442119">
        <ele>166.6</ele>
        <time>2020-02-18T05:44:10Z</time>
      </trkpt>
      <trkpt lat="56.863716940675" lon="14.803892258039">
        <ele>167</ele>
        <time>2020-02-18T05:44:15Z</time>
      </trkpt>
      <trkpt lat="56.863634714236" lon="14.80401287358">
        <ele>167.4</ele>
        <time>2020-02-18T05:44:18Z</time>
      </trkpt>
      <trkpt lat="56.863508315184" lon="14.804309676659">
        <ele>167.8</ele>
        <time>2020-02-18T05:44:25Z</time>
      </trkpt>
      <trkpt lat="56.863364649418" lon="14.804585273531">
        <ele>167.6</ele>
        <time>2020-02-18T05:44:32Z</time>
      </trkpt>
      <trkpt lat="56.863214781046" lon="14.804768753322">
        <ele>167.4</ele>
        <time>2020-02-18T05:44:38Z</time>
      </trkpt>
      <trkpt lat="56.863054183842" lon="14.804992130957">
        <ele>167.2</ele>
        <time>2020-02-18T05:44:46Z</time>
      </trkpt>
      <trkpt lat="56.86288838986" lon="14.805214502764">
        <ele>166.8</ele>
        <time>2020-02-18T05:44:53Z</time>
      </trkpt>
      <trkpt lat="56.862725864819" lon="14.805441903711">
        <ele>167</ele>
        <time>2020-02-18T05:45:00Z</time>
      </trkpt>
      <trkpt lat="56.862601142147" lon="14.805762008472">
        <ele>167</ele>
        <time>2020-02-18T05:45:07Z</time>
      </trkpt>
      <trkpt lat="56.862477425303" lon="14.806055458791">
        <ele>166.6</ele>
        <time>2020-02-18T05:45:13Z</time>
      </trkpt>
      <trkpt lat="56.862365862214" lon="14.806361817236">
        <ele>166.8</ele>
        <time>2020-02-18T05:45:19Z</time>
      </trkpt>
      <trkpt lat="56.862261256102" lon="14.806684436567">
        <ele>166.4</ele>
        <time>2020-02-18T05:45:25Z</time>
      </trkpt>
      <trkpt lat="56.862242648284" lon="14.806734727967">
        <ele>166.2</ele>
        <time>2020-02-18T05:45:26Z</time>
      </trkpt>
      <trkpt lat="56.862143993321" lon="14.807033877978">
        <ele>166.6</ele>
        <time>2020-02-18T05:45:32Z</time>
      </trkpt>
      <trkpt lat="56.862054139353" lon="14.807211238982">
        <ele>167.2</ele>
        <time>2020-02-18T05:45:37Z</time>
      </trkpt>
      <trkpt lat="56.861896643452" lon="14.807450626046">
        <ele>167.8</ele>
        <time>2020-02-18T05:45:44Z</time>
      </trkpt>
      <trkpt lat="56.8617702444" lon="14.807749189324">
        <ele>167.8</ele>
        <time>2020-02-18T05:45:52Z</time>
      </trkpt>
      <trkpt lat="56.86164619228" lon="14.80799762884">
        <ele>167.8</ele>
        <time>2020-02-18T05:45:59Z</time>
      </trkpt>
      <trkpt lat="56.861522810712" lon="14.808276662291">
        <ele>167.6</ele>
        <time>2020-02-18T05:46:06Z</time>
      </trkpt>
      <trkpt lat="56.861397166031" lon="14.808528538386">
        <ele>167</ele>
        <time>2020-02-18T05:46:13Z</time>
      </trkpt>
      <trkpt lat="56.861313263212" lon="14.808782007042">
        <ele>166.2</ele>
        <time>2020-02-18T05:46:19Z</time>
      </trkpt>
      <trkpt lat="56.861228522203" lon="14.809090460962">
        <ele>166.2</ele>
        <time>2020-02-18T05:46:25Z</time>
      </trkpt>
      <trkpt lat="56.861153420379" lon="14.809422970935">
        <ele>166.2</ele>
        <time>2020-02-18T05:46:31Z</time>
      </trkpt>
      <trkpt lat="56.861119138408" lon="14.809768640491">
        <ele>166.4</ele>
        <time>2020-02-18T05:46:36Z</time>
      </trkpt>
      <trkpt lat="56.861109583042" lon="14.810143227602">
        <ele>166.4</ele>
        <time>2020-02-18T05:46:43Z</time>
      </trkpt>
      <trkpt lat="56.861158114243" lon="14.810496105592">
        <ele>166.8</ele>
        <time>2020-02-18T05:46:50Z</time>
      </trkpt>
      <trkpt lat="56.861146882497" lon="14.810545307345">
        <ele>166.8</ele>
        <time>2020-02-18T05:46:51Z</time>
      </trkpt>
      <trkpt lat="56.861119222227" lon="14.81089860443">
        <ele>166.2</ele>
        <time>2020-02-18T05:46:57Z</time>
      </trkpt>
      <trkpt lat="56.861147385411" lon="14.81122130758">
        <ele>166.4</ele>
        <time>2020-02-18T05:47:02Z</time>
      </trkpt>
      <trkpt lat="56.861205723435" lon="14.811539568323">
        <ele>166.4</ele>
        <time>2020-02-18T05:47:07Z</time>
      </trkpt>
      <trkpt lat="56.86128241782" lon="14.811864283129">
        <ele>166.4</ele>
        <time>2020-02-18T05:47:13Z</time>
      </trkpt>
      <trkpt lat="56.861301444733" lon="14.81194215098">
        <ele>166.4</ele>
        <time>2020-02-18T05:47:15Z</time>
      </trkpt>
      <trkpt lat="56.861402949542" lon="14.812288742545">
        <ele>166.6</ele>
        <time>2020-02-18T05:47:22Z</time>
      </trkpt>
      <trkpt lat="56.861523900359" lon="14.812573224231">
        <ele>167</ele>
        <time>2020-02-18T05:47:28Z</time>
      </trkpt>
      <trkpt lat="56.861588692446" lon="14.812688391537">
        <ele>167.2</ele>
        <time>2020-02-18T05:47:31Z</time>
      </trkpt>
      <trkpt lat="56.861750211659" lon="14.812897268485">
        <ele>167.6</ele>
        <time>2020-02-18T05:47:39Z</time>
      </trkpt>
      <trkpt lat="56.861900415307" lon="14.813099859008">
        <ele>167.6</ele>
        <time>2020-02-18T05:47:46Z</time>
      </trkpt>
      <trkpt lat="56.862057492113" lon="14.813319967702">
        <ele>168</ele>
        <time>2020-02-18T05:47:52Z</time>
      </trkpt>
      <trkpt lat="56.862150363565" lon="14.813436140836">
        <ele>168.4</ele>
        <time>2020-02-18T05:47:56Z</time>
      </trkpt>
      <trkpt lat="56.862243067379" lon="14.813482660381">
        <ele>168.6</ele>
        <time>2020-02-18T05:48:00Z</time>
      </trkpt>
      <trkpt lat="56.862436018717" lon="14.813520630388">
        <ele>167.6</ele>
        <time>2020-02-18T05:48:09Z</time>
      </trkpt>
      <trkpt lat="56.862607428572" lon="14.813565473553">
        <ele>167.2</ele>
        <time>2020-02-18T05:48:14Z</time>
      </trkpt>
      <trkpt lat="56.862775904762" lon="14.813718778504">
        <ele>166.8</ele>
        <time>2020-02-18T05:48:19Z</time>
      </trkpt>
      <trkpt lat="56.862913787017" lon="14.813931594945">
        <ele>167.2</ele>
        <time>2020-02-18T05:48:24Z</time>
      </trkpt>
      <trkpt lat="56.863016884387" lon="14.814233678621">
        <ele>167.2</ele>
        <time>2020-02-18T05:48:30Z</time>
      </trkpt>
      <trkpt lat="56.863009005401" lon="14.8146143007">
        <ele>167.6</ele>
        <time>2020-02-18T05:48:37Z</time>
      </trkpt>
      <trkpt lat="56.862867016015" lon="14.814850083547">
        <ele>167.6</ele>
        <time>2020-02-18T05:48:44Z</time>
      </trkpt>
      <trkpt lat="56.86271907548" lon="14.815092655733">
        <ele>167.8</ele>
        <time>2020-02-18T05:48:53Z</time>
      </trkpt>
      <trkpt lat="56.862553365317" lon="14.815271860755">
        <ele>167.4</ele>
        <time>2020-02-18T05:49:01Z</time>
      </trkpt>
      <trkpt lat="56.862399641271" lon="14.81545584346">
        <ele>167.6</ele>
        <time>2020-02-18T05:49:07Z</time>
      </trkpt>
      <trkpt lat="56.862240217533" lon="14.815707384279">
        <ele>167.6</ele>
        <time>2020-02-18T05:49:13Z</time>
      </trkpt>
      <trkpt lat="56.862095713577" lon="14.81591433339">
        <ele>167.2</ele>
        <time>2020-02-18T05:49:19Z</time>
      </trkpt>
      <trkpt lat="56.862023210142" lon="14.816011311973">
        <ele>167.8</ele>
        <time>2020-02-18T05:49:22Z</time>
      </trkpt>
      <trkpt lat="56.861902007868" lon="14.816231336848">
        <ele>168.4</ele>
        <time>2020-02-18T05:49:28Z</time>
      </trkpt>
      <trkpt lat="56.861766304907" lon="14.816478770536">
        <ele>167.6</ele>
        <time>2020-02-18T05:49:35Z</time>
      </trkpt>
      <trkpt lat="56.861759431749" lon="14.816519925665">
        <ele>167.4</ele>
        <time>2020-02-18T05:49:36Z</time>
      </trkpt>
      <trkpt lat="56.861755324618" lon="14.816819913866">
        <ele>167.4</ele>
        <time>2020-02-18T05:49:42Z</time>
      </trkpt>
      <trkpt lat="56.861794216634" lon="14.817165667241">
        <ele>167.2</ele>
        <time>2020-02-18T05:49:49Z</time>
      </trkpt>
      <trkpt lat="56.861846603509" lon="14.817511420616">
        <ele>167.4</ele>
        <time>2020-02-18T05:49:55Z</time>
      </trkpt>
      <trkpt lat="56.861943330635" lon="14.817815432129">
        <ele>167.2</ele>
        <time>2020-02-18T05:50:01Z</time>
      </trkpt>
      <trkpt lat="56.862117590336" lon="14.817874356886">
        <ele>166.6</ele>
        <time>2020-02-18T05:50:09Z</time>
      </trkpt>
      <trkpt lat="56.862294364607" lon="14.818015759539">
        <ele>166.4</ele>
        <time>2020-02-18T05:50:18Z</time>
      </trkpt>
      <trkpt lat="56.862468624308" lon="14.818131597397">
        <ele>166.4</ele>
        <time>2020-02-18T05:50:24Z</time>
      </trkpt>
      <trkpt lat="56.862555796068" lon="14.818177697847">
        <ele>166.2</ele>
        <time>2020-02-18T05:50:27Z</time>
      </trkpt>
      <trkpt lat="56.862747154845" lon="14.818242070839">
        <ele>166.2</ele>
        <time>2020-02-18T05:50:33Z</time>
      </trkpt>
      <trkpt lat="56.862949493911" lon="14.818270066385">
        <ele>166.2</ele>
        <time>2020-02-18T05:50:39Z</time>
      </trkpt>
      <trkpt lat="56.863138338118" lon="14.81817325544">
        <ele>166.2</ele>
        <time>2020-02-18T05:50:45Z</time>
      </trkpt>
      <trkpt lat="56.863326847049" lon="14.818043671266">
        <ele>166.4</ele>
        <time>2020-02-18T05:50:52Z</time>
      </trkpt>
      <trkpt lat="56.863510913573" lon="14.817912745988">
        <ele>166.2</ele>
        <time>2020-02-18T05:50:59Z</time>
      </trkpt>
      <trkpt lat="56.863676959012" lon="14.817764721634">
        <ele>166</ele>
        <time>2020-02-18T05:51:05Z</time>
      </trkpt>
      <trkpt lat="56.86385063198" lon="14.817590210476">
        <ele>166</ele>
        <time>2020-02-18T05:51:11Z</time>
      </trkpt>
      <trkpt lat="56.864013157021" lon="14.817442018484">
        <ele>166.4</ele>
        <time>2020-02-18T05:51:17Z</time>
      </trkpt>
      <trkpt lat="56.864190350387" lon="14.81726381929">
        <ele>165.8</ele>
        <time>2020-02-18T05:51:24Z</time>
      </trkpt>
      <trkpt lat="56.864360502957" lon="14.817117387497">
        <ele>165.8</ele>
        <time>2020-02-18T05:51:30Z</time>
      </trkpt>
      <trkpt lat="56.864529398242" lon="14.816986881314">
        <ele>166</ele>
        <time>2020-02-18T05:51:36Z</time>
      </trkpt>
      <trkpt lat="56.864716230793" lon="14.81684556248">
        <ele>166.8</ele>
        <time>2020-02-18T05:51:43Z</time>
      </trkpt>
      <trkpt lat="56.864893843254" lon="14.816675912824">
        <ele>166.8</ele>
        <time>2020-02-18T05:51:50Z</time>
      </trkpt>
      <trkpt lat="56.865073718828" lon="14.816508861557">
        <ele>166.8</ele>
        <time>2020-02-18T05:51:57Z</time>
      </trkpt>
      <trkpt lat="56.865256779524" lon="14.816411631517">
        <ele>166.8</ele>
        <time>2020-02-18T05:52:04Z</time>
      </trkpt>
      <trkpt lat="56.865439169668" lon="14.816211555564">
        <ele>166.2</ele>
        <time>2020-02-18T05:52:11Z</time>
      </trkpt>
      <trkpt lat="56.865628265332" lon="14.816063615029">
        <ele>165.6</ele>
        <time>2020-02-18T05:52:17Z</time>
      </trkpt>
      <trkpt lat="56.865823479783" lon="14.815936042511">
        <ele>166.4</ele>
        <time>2020-02-18T05:52:24Z</time>
      </trkpt>
      <trkpt lat="56.865996146923" lon="14.815799920455">
        <ele>166.4</ele>
        <time>2020-02-18T05:52:30Z</time>
      </trkpt>
      <trkpt lat="56.866180297266" lon="14.815652482834">
        <ele>166.6</ele>
        <time>2020-02-18T05:52:36Z</time>
      </trkpt>
      <trkpt lat="56.866352796768" lon="14.815558773192">
        <ele>166.6</ele>
        <time>2020-02-18T05:52:42Z</time>
      </trkpt>
      <trkpt lat="56.866534432541" lon="14.815473864545">
        <ele>166.8</ele>
        <time>2020-02-18T05:52:48Z</time>
      </trkpt>
      <trkpt lat="56.866709949527" lon="14.815380071084">
        <ele>166</ele>
        <time>2020-02-18T05:52:54Z</time>
      </trkpt>
      <trkpt lat="56.866901224485" lon="14.815341095249">
        <ele>165.6</ele>
        <time>2020-02-18T05:53:01Z</time>
      </trkpt>
      <trkpt lat="56.867095014013" lon="14.815266496339">
        <ele>165.4</ele>
        <time>2020-02-18T05:53:08Z</time>
      </trkpt>
      <trkpt lat="56.867278661442" lon="14.815191478334">
        <ele>166</ele>
        <time>2020-02-18T05:53:14Z</time>
      </trkpt>
      <trkpt lat="56.8674615545" lon="14.815149317377">
        <ele>165.8</ele>
        <time>2020-02-18T05:53:20Z</time>
      </trkpt>
      <trkpt lat="56.867660456987" lon="14.815111934103">
        <ele>166.2</ele>
        <time>2020-02-18T05:53:27Z</time>
      </trkpt>
      <trkpt lat="56.867842176579" lon="14.815203464451">
        <ele>166.6</ele>
        <time>2020-02-18T05:53:34Z</time>
      </trkpt>
      <trkpt lat="56.868024734361" lon="14.815313770255">
        <ele>166.6</ele>
        <time>2020-02-18T05:53:40Z</time>
      </trkpt>
      <trkpt lat="56.868207795057" lon="14.815383507663">
        <ele>166.4</ele>
        <time>2020-02-18T05:53:46Z</time>
      </trkpt>
      <trkpt lat="56.868406362268" lon="14.815424998068">
        <ele>166.2</ele>
        <time>2020-02-18T05:53:53Z</time>
      </trkpt>
      <trkpt lat="56.868604426565" lon="14.81549691477">
        <ele>166.4</ele>
        <time>2020-02-18T05:54:00Z</time>
      </trkpt>
      <trkpt lat="56.868798551369" lon="14.815534298044">
        <ele>167.2</ele>
        <time>2020-02-18T05:54:06Z</time>
      </trkpt>
      <trkpt lat="56.868863930189" lon="14.815550391292">
        <ele>167.2</ele>
        <time>2020-02-18T05:54:08Z</time>
      </trkpt>
      <trkpt lat="56.869061072477" lon="14.815488616689">
        <ele>167.2</ele>
        <time>2020-02-18T05:54:15Z</time>
      </trkpt>
      <trkpt lat="56.869233152884" lon="14.815342268715">
        <ele>167.2</ele>
        <time>2020-02-18T05:54:21Z</time>
      </trkpt>
      <trkpt lat="56.86940699349" lon="14.815205392288">
        <ele>167.4</ele>
        <time>2020-02-18T05:54:27Z</time>
      </trkpt>
      <trkpt lat="56.869571362549" lon="14.81504596855">
        <ele>166.8</ele>
        <time>2020-02-18T05:54:33Z</time>
      </trkpt>
      <trkpt lat="56.869724751319" lon="14.814899369119">
        <ele>166.2</ele>
        <time>2020-02-18T05:54:39Z</time>
      </trkpt>
      <trkpt lat="56.869907895834" lon="14.8147903206">
        <ele>166.4</ele>
        <time>2020-02-18T05:54:46Z</time>
      </trkpt>
      <trkpt lat="56.870093806376" lon="14.814627544102">
        <ele>166.4</ele>
        <time>2020-02-18T05:54:53Z</time>
      </trkpt>
      <trkpt lat="56.870173350607" lon="14.814567697336">
        <ele>166.6</ele>
        <time>2020-02-18T05:54:56Z</time>
      </trkpt>
      <trkpt lat="56.870343000263" lon="14.814498127566">
        <ele>166.8</ele>
        <time>2020-02-18T05:55:03Z</time>
      </trkpt>
      <trkpt lat="56.870512482281" lon="14.814512376796">
        <ele>167.4</ele>
        <time>2020-02-18T05:55:10Z</time>
      </trkpt>
      <trkpt lat="56.870705433619" lon="14.814568786983">
        <ele>167.8</ele>
        <time>2020-02-18T05:55:17Z</time>
      </trkpt>
      <trkpt lat="56.870901150984" lon="14.814702813564">
        <ele>167.4</ele>
        <time>2020-02-18T05:55:23Z</time>
      </trkpt>
      <trkpt lat="56.871069710993" lon="14.814850167366">
        <ele>167</ele>
        <time>2020-02-18T05:55:29Z</time>
      </trkpt>
      <trkpt lat="56.871233744776" lon="14.81500908819">
        <ele>166.8</ele>
        <time>2020-02-18T05:55:36Z</time>
      </trkpt>
      <trkpt lat="56.871409597038" lon="14.815147808635">
        <ele>167</ele>
        <time>2020-02-18T05:55:42Z</time>
      </trkpt>
      <trkpt lat="56.871604057118" lon="14.815228945427">
        <ele>166.8</ele>
        <time>2020-02-18T05:55:49Z</time>
      </trkpt>
      <trkpt lat="56.871802875786" lon="14.81515996239">
        <ele>166.4</ele>
        <time>2020-02-18T05:55:55Z</time>
      </trkpt>
      <trkpt lat="56.871832044798" lon="14.815139594373">
        <ele>166.4</ele>
        <time>2020-02-18T05:55:56Z</time>
      </trkpt>
      <trkpt lat="56.872013680571" lon="14.815087710412">
        <ele>166.4</ele>
        <time>2020-02-18T05:56:02Z</time>
      </trkpt>
      <trkpt lat="56.872210403764" lon="14.815001628299">
        <ele>165.6</ele>
        <time>2020-02-18T05:56:08Z</time>
      </trkpt>
      <trkpt lat="56.872387261854" lon="14.81489006521">
        <ele>165.6</ele>
        <time>2020-02-18T05:56:14Z</time>
      </trkpt>
      <trkpt lat="56.87257199893" lon="14.814879923111">
        <ele>166.4</ele>
        <time>2020-02-18T05:56:20Z</time>
      </trkpt>
      <trkpt lat="56.872734775428" lon="14.815058038486">
        <ele>166.6</ele>
        <time>2020-02-18T05:56:27Z</time>
      </trkpt>
      <trkpt lat="56.872903000161" lon="14.815267669805">
        <ele>166.4</ele>
        <time>2020-02-18T05:56:33Z</time>
      </trkpt>
      <trkpt lat="56.8730774275" lon="14.815414520693">
        <ele>166.2</ele>
        <time>2020-02-18T05:56:39Z</time>
      </trkpt>
      <trkpt lat="56.873263002766" lon="14.815480821522">
        <ele>165.6</ele>
        <time>2020-02-18T05:56:45Z</time>
      </trkpt>
      <trkpt lat="56.873444722358" lon="14.815502614462">
        <ele>165.6</ele>
        <time>2020-02-18T05:56:51Z</time>
      </trkpt>
      <trkpt lat="56.873582520794" lon="14.815556258622">
        <ele>165.2</ele>
        <time>2020-02-18T05:56:56Z</time>
      </trkpt>
      <trkpt lat="56.873785530412" lon="14.815614093732">
        <ele>165.8</ele>
        <time>2020-02-18T05:57:04Z</time>
      </trkpt>
      <trkpt lat="56.873837079097" lon="14.815623816736">
        <ele>166.4</ele>
        <time>2020-02-18T05:57:06Z</time>
      </trkpt>
      <trkpt lat="56.873967417642" lon="14.815633875016">
        <ele>166.2</ele>
        <time>2020-02-18T05:57:12Z</time>
      </trkpt>
      <trkpt lat="56.874150143062" lon="14.815467829577">
        <ele>166.4</ele>
        <time>2020-02-18T05:57:18Z</time>
      </trkpt>
      <trkpt lat="56.874325743867" lon="14.815288121641">
        <ele>165.8</ele>
        <time>2020-02-18T05:57:24Z</time>
      </trkpt>
      <trkpt lat="56.874507714916" lon="14.815132553577">
        <ele>166.2</ele>
        <time>2020-02-18T05:57:31Z</time>
      </trkpt>
      <trkpt lat="56.874697564951" lon="14.815026354904">
        <ele>166.2</ele>
        <time>2020-02-18T05:57:38Z</time>
      </trkpt>
      <trkpt lat="56.87488121238" lon="14.814921162059">
        <ele>166</ele>
        <time>2020-02-18T05:57:45Z</time>
      </trkpt>
      <trkpt lat="56.875028398544" lon="14.814723013943">
        <ele>165.6</ele>
        <time>2020-02-18T05:57:51Z</time>
      </trkpt>
      <trkpt lat="56.875149097904" lon="14.814456888618">
        <ele>165.4</ele>
        <time>2020-02-18T05:57:57Z</time>
      </trkpt>
      <trkpt lat="56.87516703517" lon="14.814414643842">
        <ele>165.2</ele>
        <time>2020-02-18T05:57:58Z</time>
      </trkpt>
      <trkpt lat="56.875296284068" lon="14.814156565141">
        <ele>165.6</ele>
        <time>2020-02-18T05:58:04Z</time>
      </trkpt>
      <trkpt lat="56.875407428062" lon="14.813846853936">
        <ele>165.8</ele>
        <time>2020-02-18T05:58:11Z</time>
      </trkpt>
      <trkpt lat="56.87548554737" lon="14.813510991203">
        <ele>165</ele>
        <time>2020-02-18T05:58:18Z</time>
      </trkpt>
      <trkpt lat="56.875546316145" lon="14.813152581159">
        <ele>165.4</ele>
        <time>2020-02-18T05:58:25Z</time>
      </trkpt>
      <trkpt lat="56.875587052179" lon="14.812784364292">
        <ele>165.8</ele>
        <time>2020-02-18T05:58:32Z</time>
      </trkpt>
      <trkpt lat="56.875617813752" lon="14.812425367515">
        <ele>166</ele>
        <time>2020-02-18T05:58:39Z</time>
      </trkpt>
      <trkpt lat="56.875626447109" lon="14.812060503408">
        <ele>165.6</ele>
        <time>2020-02-18T05:58:46Z</time>
      </trkpt>
      <trkpt lat="56.875634158457" lon="14.811704859391">
        <ele>165.6</ele>
        <time>2020-02-18T05:58:53Z</time>
      </trkpt>
      <trkpt lat="56.875624938367" lon="14.811353993057">
        <ele>165.6</ele>
        <time>2020-02-18T05:59:00Z</time>
      </trkpt>
      <trkpt lat="56.875622423797" lon="14.810985440914">
        <ele>165.8</ele>
        <time>2020-02-18T05:59:07Z</time>
      </trkpt>
      <trkpt lat="56.875635834837" lon="14.810661480479">
        <ele>166.2</ele>
        <time>2020-02-18T05:59:13Z</time>
      </trkpt>
      <trkpt lat="56.875662992193" lon="14.810301896969">
        <ele>166</ele>
        <time>2020-02-18T05:59:20Z</time>
      </trkpt>
      <trkpt lat="56.875630805697" lon="14.810083464655">
        <ele>165.4</ele>
        <time>2020-02-18T05:59:25Z</time>
      </trkpt>
      <trkpt lat="56.875457300367" lon="14.809903840538">
        <ele>166.4</ele>
        <time>2020-02-18T05:59:33Z</time>
      </trkpt>
      <trkpt lat="56.875325369261" lon="14.809829576904">
        <ele>167.4</ele>
        <time>2020-02-18T05:59:38Z</time>
      </trkpt>
      <trkpt lat="56.875197377648" lon="14.809740980221">
        <ele>168.4</ele>
        <time>2020-02-18T05:59:43Z</time>
      </trkpt>
      <trkpt lat="56.87500861726" lon="14.809689347717">
        <ele>168.4</ele>
        <time>2020-02-18T05:59:52Z</time>
      </trkpt>
      <trkpt lat="56.874807200203" lon="14.809588262003">
        <ele>168.4</ele>
        <time>2020-02-18T06:00:00Z</time>
      </trkpt>
      <trkpt lat="56.874613578313" lon="14.809549369987">
        <ele>168.6</ele>
        <time>2020-02-18T06:00:08Z</time>
      </trkpt>
      <trkpt lat="56.87443026616" lon="14.809507041392">
        <ele>168.6</ele>
        <time>2020-02-18T06:00:14Z</time>
      </trkpt>
      <trkpt lat="56.874218455547" lon="14.809458007277">
        <ele>168.4</ele>
        <time>2020-02-18T06:00:20Z</time>
      </trkpt>
      <trkpt lat="56.874028186417" lon="14.809427078066">
        <ele>167.8</ele>
        <time>2020-02-18T06:00:26Z</time>
      </trkpt>
      <trkpt lat="56.873833726337" lon="14.809376283752">
        <ele>167.8</ele>
        <time>2020-02-18T06:00:33Z</time>
      </trkpt>
      <trkpt lat="56.873633901841" lon="14.809346947102">
        <ele>167.6</ele>
        <time>2020-02-18T06:00:40Z</time>
      </trkpt>
      <trkpt lat="56.873516387603" lon="14.809290788372">
        <ele>167.4</ele>
        <time>2020-02-18T06:00:45Z</time>
      </trkpt>
      <trkpt lat="56.873319832048" lon="14.809205292992">
        <ele>167.4</ele>
        <time>2020-02-18T06:00:53Z</time>
      </trkpt>
      <trkpt lat="56.873145991442" lon="14.8091157743">
        <ele>168</ele>
        <time>2020-02-18T06:01:00Z</time>
      </trkpt>
      <trkpt lat="56.873049515773" lon="14.809060956674">
        <ele>167.4</ele>
        <time>2020-02-18T06:01:04Z</time>
      </trkpt>
      <trkpt lat="56.872861928851" lon="14.809056178991">
        <ele>166.6</ele>
        <time>2020-02-18T06:01:09Z</time>
      </trkpt>
      <trkpt lat="56.872686244227" lon="14.809035643336">
        <ele>166.4</ele>
        <time>2020-02-18T06:01:13Z</time>
      </trkpt>
      <trkpt lat="56.872481893505" lon="14.808995326397">
        <ele>166.4</ele>
        <time>2020-02-18T06:01:19Z</time>
      </trkpt>
      <trkpt lat="56.872289864176" lon="14.808934976717">
        <ele>166.8</ele>
        <time>2020-02-18T06:01:25Z</time>
      </trkpt>
      <trkpt lat="56.872091380784" lon="14.808875800503">
        <ele>166.8</ele>
        <time>2020-02-18T06:01:32Z</time>
      </trkpt>
      <trkpt lat="56.871912678676" lon="14.808820396144">
        <ele>166.8</ele>
        <time>2020-02-18T06:01:38Z</time>
      </trkpt>
      <trkpt lat="56.87173883807" lon="14.80862710953">
        <ele>166.4</ele>
        <time>2020-02-18T06:01:45Z</time>
      </trkpt>
      <trkpt lat="56.871584108196" lon="14.808406078827">
        <ele>167</ele>
        <time>2020-02-18T06:01:52Z</time>
      </trkpt>
      <trkpt lat="56.871437676403" lon="14.808185131943">
        <ele>166</ele>
        <time>2020-02-18T06:01:59Z</time>
      </trkpt>
      <trkpt lat="56.87127028986" lon="14.807980362126">
        <ele>166.6</ele>
        <time>2020-02-18T06:02:07Z</time>
      </trkpt>
      <trkpt lat="56.871096365435" lon="14.807869804865">
        <ele>166</ele>
        <time>2020-02-18T06:02:14Z</time>
      </trkpt>
      <trkpt lat="56.87089645712" lon="14.807788584254">
        <ele>166.8</ele>
        <time>2020-02-18T06:02:21Z</time>
      </trkpt>
      <trkpt lat="56.8707053498" lon="14.807728737488">
        <ele>167</ele>
        <time>2020-02-18T06:02:27Z</time>
      </trkpt>
      <trkpt lat="56.870502256363" lon="14.807652965112">
        <ele>166.8</ele>
        <time>2020-02-18T06:02:34Z</time>
      </trkpt>
      <trkpt lat="56.870327829024" lon="14.807526985155">
        <ele>166.4</ele>
        <time>2020-02-18T06:02:40Z</time>
      </trkpt>
      <trkpt lat="56.870178631204" lon="14.807292208136">
        <ele>166.4</ele>
        <time>2020-02-18T06:02:47Z</time>
      </trkpt>
      <trkpt lat="56.870041838596" lon="14.807026753363">
        <ele>166.8</ele>
        <time>2020-02-18T06:02:54Z</time>
      </trkpt>
      <trkpt lat="56.869916361553" lon="14.806772781793">
        <ele>166.6</ele>
        <time>2020-02-18T06:03:01Z</time>
      </trkpt>
      <trkpt lat="56.869764984439" lon="14.806511685608">
        <ele>166.8</ele>
        <time>2020-02-18T06:03:08Z</time>
      </trkpt>
      <trkpt lat="56.869647637839" lon="14.806255367106">
        <ele>166.8</ele>
        <time>2020-02-18T06:03:14Z</time>
      </trkpt>
      <trkpt lat="56.869568177427" lon="14.805927383359">
        <ele>166</ele>
        <time>2020-02-18T06:03:21Z</time>
      </trkpt>
      <trkpt lat="56.869401712893" lon="14.805555813732">
        <ele>166.2</ele>
        <time>2020-02-18T06:03:32Z</time>
      </trkpt>
      <trkpt lat="56.869241450965" lon="14.805409801034">
        <ele>166</ele>
        <time>2020-02-18T06:03:39Z</time>
      </trkpt>
      <trkpt lat="56.869044560134" lon="14.805385493524">
        <ele>166.4</ele>
        <time>2020-02-18T06:03:47Z</time>
      </trkpt>
      <trkpt lat="56.868823948526" lon="14.805401167677">
        <ele>166.4</ele>
        <time>2020-02-18T06:03:54Z</time>
      </trkpt>
      <trkpt lat="56.868637032156" lon="14.805394126881">
        <ele>167</ele>
        <time>2020-02-18T06:04:00Z</time>
      </trkpt>
      <trkpt lat="56.86858389091" lon="14.805396641451">
        <ele>167.4</ele>
        <time>2020-02-18T06:04:02Z</time>
      </trkpt>
      <trkpt lat="56.868387670631" lon="14.805391528492">
        <ele>167.2</ele>
        <time>2020-02-18T06:04:08Z</time>
      </trkpt>
      <trkpt lat="56.868180218606" lon="14.80534224292">
        <ele>166.8</ele>
        <time>2020-02-18T06:04:15Z</time>
      </trkpt>
      <trkpt lat="56.868017106832" lon="14.805183908829">
        <ele>166.8</ele>
        <time>2020-02-18T06:04:22Z</time>
      </trkpt>
      <trkpt lat="56.867941753551" lon="14.805078045432">
        <ele>166.4</ele>
        <time>2020-02-18T06:04:26Z</time>
      </trkpt>
      <trkpt lat="56.867779647605" lon="14.804910407432">
        <ele>167.4</ele>
        <time>2020-02-18T06:04:36Z</time>
      </trkpt>
      <trkpt lat="56.867584936068" lon="14.804806723329">
        <ele>167</ele>
        <time>2020-02-18T06:04:44Z</time>
      </trkpt>
      <trkpt lat="56.867407658883" lon="14.80472114413">
        <ele>166.8</ele>
        <time>2020-02-18T06:04:51Z</time>
      </trkpt>
      <trkpt lat="56.867217138296" lon="14.804650903808">
        <ele>167</ele>
        <time>2020-02-18T06:04:57Z</time>
      </trkpt>
      <trkpt lat="56.867019576913" lon="14.804601115322">
        <ele>167</ele>
        <time>2020-02-18T06:05:02Z</time>
      </trkpt>
      <trkpt lat="56.866814388001" lon="14.804557529442">
        <ele>167.4</ele>
        <time>2020-02-18T06:05:08Z</time>
      </trkpt>
      <trkpt lat="56.866624118871" lon="14.804452336597">
        <ele>167</ele>
        <time>2020-02-18T06:05:15Z</time>
      </trkpt>
      <trkpt lat="56.866448601885" lon="14.804344293906">
        <ele>167</ele>
        <time>2020-02-18T06:05:23Z</time>
      </trkpt>
      <trkpt lat="56.866251040502" lon="14.804256451594">
        <ele>167.4</ele>
        <time>2020-02-18T06:05:31Z</time>
      </trkpt>
      <trkpt lat="56.866048449979" lon="14.80412519104">
        <ele>167.4</ele>
        <time>2020-02-18T06:05:38Z</time>
      </trkpt>
      <trkpt lat="56.865864299636" lon="14.80400113892">
        <ele>167.4</ele>
        <time>2020-02-18T06:05:44Z</time>
      </trkpt>
      <trkpt lat="56.865683585872" lon="14.803888905279">
        <ele>166.8</ele>
        <time>2020-02-18T06:05:50Z</time>
      </trkpt>
      <trkpt lat="56.865492143276" lon="14.80376896029">
        <ele>166.8</ele>
        <time>2020-02-18T06:05:57Z</time>
      </trkpt>
      <trkpt lat="56.865309836951" lon="14.803684889833">
        <ele>167</ele>
        <time>2020-02-18T06:06:02Z</time>
      </trkpt>
      <trkpt lat="56.865115628328" lon="14.803663180712">
        <ele>167</ele>
        <time>2020-02-18T06:06:06Z</time>
      </trkpt>
      <trkpt lat="56.864914462728" lon="14.803656978106">
        <ele>167.2</ele>
        <time>2020-02-18T06:06:10Z</time>
      </trkpt>
      <trkpt lat="56.864734754792" lon="14.803643902342">
        <ele>166.6</ele>
        <time>2020-02-18T06:06:17Z</time>
      </trkpt>
      <trkpt lat="56.864549263345" lon="14.803643399428">
        <ele>166.6</ele>
        <time>2020-02-18T06:06:26Z</time>
      </trkpt>
      <trkpt lat="56.864510958062" lon="14.80366418654">
        <ele>166.8</ele>
        <time>2020-02-18T06:06:28Z</time>
      </trkpt>
      <trkpt lat="56.864339883483" lon="14.803745574789">
        <ele>166.6</ele>
        <time>2020-02-18T06:06:35Z</time>
      </trkpt>
      <trkpt lat="56.864264111107" lon="14.803785556452">
        <ele>166.6</ele>
        <time>2020-02-18T06:06:38Z</time>
      </trkpt>
      <trkpt lat="56.864057161996" lon="14.803847163417">
        <ele>166.8</ele>
        <time>2020-02-18T06:06:44Z</time>
      </trkpt>
      <trkpt lat="56.863870329445" lon="14.803991164459">
        <ele>167</ele>
        <time>2020-02-18T06:06:49Z</time>
      </trkpt>
      <trkpt lat="56.863715599571" lon="14.804188222928">
        <ele>167.6</ele>
        <time>2020-02-18T06:06:54Z</time>
      </trkpt>
      <trkpt lat="56.863570425063" lon="14.804448480923">
        <ele>168</ele>
        <time>2020-02-18T06:07:00Z</time>
      </trkpt>
      <trkpt lat="56.86343572793" lon="14.804665404495">
        <ele>168.2</ele>
        <time>2020-02-18T06:07:06Z</time>
      </trkpt>
      <trkpt lat="56.863275130726" lon="14.804895571469">
        <ele>167.6</ele>
        <time>2020-02-18T06:07:13Z</time>
      </trkpt>
      <trkpt lat="56.863144373086" lon="14.805122301864">
        <ele>167.4</ele>
        <time>2020-02-18T06:07:19Z</time>
      </trkpt>
      <trkpt lat="56.863020237147" lon="14.805376021977">
        <ele>167.4</ele>
        <time>2020-02-18T06:07:25Z</time>
      </trkpt>
      <trkpt lat="56.862900208339" lon="14.805652876134">
        <ele>167.2</ele>
        <time>2020-02-18T06:07:31Z</time>
      </trkpt>
      <trkpt lat="56.862770959441" lon="14.805883629841">
        <ele>167.2</ele>
        <time>2020-02-18T06:07:37Z</time>
      </trkpt>
      <trkpt lat="56.862641542905" lon="14.806142127637">
        <ele>167</ele>
        <time>2020-02-18T06:07:43Z</time>
      </trkpt>
      <trkpt lat="56.862497960958" lon="14.806417556871">
        <ele>167</ele>
        <time>2020-02-18T06:07:50Z</time>
      </trkpt>
      <trkpt lat="56.862388996258" lon="14.806681167626">
        <ele>167</ele>
        <time>2020-02-18T06:07:56Z</time>
      </trkpt>
      <trkpt lat="56.862269638002" lon="14.806996327066">
        <ele>166.8</ele>
        <time>2020-02-18T06:08:03Z</time>
      </trkpt>
      <trkpt lat="56.862122787114" lon="14.807226410221">
        <ele>167.4</ele>
        <time>2020-02-18T06:08:10Z</time>
      </trkpt>
      <trkpt lat="56.861984066669" lon="14.807499408704">
        <ele>168</ele>
        <time>2020-02-18T06:08:18Z</time>
      </trkpt>
      <trkpt lat="56.861869067001" lon="14.807803671674">
        <ele>168.2</ele>
        <time>2020-02-18T06:08:25Z</time>
      </trkpt>
      <trkpt lat="56.861739985741" lon="14.808072730664">
        <ele>168.2</ele>
        <time>2020-02-18T06:08:32Z</time>
      </trkpt>
      <trkpt lat="56.861677792043" lon="14.808257132464">
        <ele>168.4</ele>
        <time>2020-02-18T06:08:36Z</time>
      </trkpt>
      <trkpt lat="56.861574275578" lon="14.808525437083">
        <ele>168</ele>
        <time>2020-02-18T06:08:42Z</time>
      </trkpt>
      <trkpt lat="56.861485595076" lon="14.808731715642">
        <ele>167.2</ele>
        <time>2020-02-18T06:08:47Z</time>
      </trkpt>
      <trkpt lat="56.861385179914" lon="14.809044276693">
        <ele>167</ele>
        <time>2020-02-18T06:08:54Z</time>
      </trkpt>
      <trkpt lat="56.861291470272" lon="14.809343594342">
        <ele>167</ele>
        <time>2020-02-18T06:09:01Z</time>
      </trkpt>
      <trkpt lat="56.861230114764" lon="14.809668895881">
        <ele>166.8</ele>
        <time>2020-02-18T06:09:07Z</time>
      </trkpt>
      <trkpt lat="56.861194743146" lon="14.810023785527">
        <ele>166.6</ele>
        <time>2020-02-18T06:09:12Z</time>
      </trkpt>
      <trkpt lat="56.861188791997" lon="14.810382447028">
        <ele>167</ele>
        <time>2020-02-18T06:09:18Z</time>
      </trkpt>
      <trkpt lat="56.861217793371" lon="14.8107502448">
        <ele>166.8</ele>
        <time>2020-02-18T06:09:25Z</time>
      </trkpt>
      <trkpt lat="56.861178230803" lon="14.811104380075">
        <ele>167</ele>
        <time>2020-02-18T06:09:32Z</time>
      </trkpt>
      <trkpt lat="56.86119776063" lon="14.811443344111">
        <ele>167</ele>
        <time>2020-02-18T06:09:38Z</time>
      </trkpt>
      <trkpt lat="56.861256685387" lon="14.81177367479">
        <ele>166.8</ele>
        <time>2020-02-18T06:09:45Z</time>
      </trkpt>
      <trkpt lat="56.861324159682" lon="14.812077434846">
        <ele>166.8</ele>
        <time>2020-02-18T06:09:51Z</time>
      </trkpt>
      <trkpt lat="56.861420551532" lon="14.812366861853">
        <ele>167</ele>
        <time>2020-02-18T06:09:57Z</time>
      </trkpt>
      <trkpt lat="56.861550470982" lon="14.812597531741">
        <ele>167.2</ele>
        <time>2020-02-18T06:10:03Z</time>
      </trkpt>
      <trkpt lat="56.861702937743" lon="14.812798278246">
        <ele>168</ele>
        <time>2020-02-18T06:10:10Z</time>
      </trkpt>
      <trkpt lat="56.861848028432" lon="14.813014615085">
        <ele>167.6</ele>
        <time>2020-02-18T06:10:18Z</time>
      </trkpt>
      <trkpt lat="56.861880550204" lon="14.813073372204">
        <ele>167.6</ele>
        <time>2020-02-18T06:10:20Z</time>
      </trkpt>
      <trkpt lat="56.861924387541" lon="14.813129530934">
        <ele>167.6</ele>
        <time>2020-02-18T06:10:22Z</time>
      </trkpt>
      <trkpt lat="56.862055396638" lon="14.81330588611">
        <ele>168.2</ele>
        <time>2020-02-18T06:10:27Z</time>
      </trkpt>
      <trkpt lat="56.862237870601" lon="14.813466650952">
        <ele>168.6</ele>
        <time>2020-02-18T06:10:34Z</time>
      </trkpt>
      <trkpt lat="56.862433839423" lon="14.81348861153">
        <ele>168.2</ele>
        <time>2020-02-18T06:10:42Z</time>
      </trkpt>
      <trkpt lat="56.862629640607" lon="14.813571676159">
        <ele>167.8</ele>
        <time>2020-02-18T06:10:49Z</time>
      </trkpt>
      <trkpt lat="56.862789902535" lon="14.813759430719">
        <ele>167.4</ele>
        <time>2020-02-18T06:10:54Z</time>
      </trkpt>
      <trkpt lat="56.862940022364" lon="14.814023041474">
        <ele>167.6</ele>
        <time>2020-02-18T06:11:00Z</time>
      </trkpt>
      <trkpt lat="56.863026020658" lon="14.814355635266">
        <ele>167.6</ele>
        <time>2020-02-18T06:11:06Z</time>
      </trkpt>
      <trkpt lat="56.862988302108" lon="14.814681607357">
        <ele>168</ele>
        <time>2020-02-18T06:11:12Z</time>
      </trkpt>
      <trkpt lat="56.862855029898" lon="14.814922167887">
        <ele>167.6</ele>
        <time>2020-02-18T06:11:19Z</time>
      </trkpt>
      <trkpt lat="56.862738437669" lon="14.815181252416">
        <ele>167.6</ele>
        <time>2020-02-18T06:11:26Z</time>
      </trkpt>
      <trkpt lat="56.862594268989" lon="14.815427428819">
        <ele>167.4</ele>
        <time>2020-02-18T06:11:33Z</time>
      </trkpt>
      <trkpt lat="56.862553700593" lon="14.815492556182">
        <ele>167.2</ele>
        <time>2020-02-18T06:11:35Z</time>
      </trkpt>
      <trkpt lat="56.862412381759" lon="14.815705707899">
        <ele>167</ele>
        <time>2020-02-18T06:11:41Z</time>
      </trkpt>
      <trkpt lat="56.862255640229" lon="14.815945514058">
        <ele>167.4</ele>
        <time>2020-02-18T06:11:48Z</time>
      </trkpt>
      <trkpt lat="56.862103341106" lon="14.816173166462">
        <ele>167.4</ele>
        <time>2020-02-18T06:11:54Z</time>
      </trkpt>
      <trkpt lat="56.861959340064" lon="14.816428311498">
        <ele>167</ele>
        <time>2020-02-18T06:12:01Z</time>
      </trkpt>
      <trkpt lat="56.861850794459" lon="14.816718911971">
        <ele>167.2</ele>
        <time>2020-02-18T06:12:08Z</time>
      </trkpt>
      <trkpt lat="56.861826654587" lon="14.817061144948">
        <ele>167.6</ele>
        <time>2020-02-18T06:12:15Z</time>
      </trkpt>
      <trkpt lat="56.861873174132" lon="14.817422991571">
        <ele>167</ele>
        <time>2020-02-18T06:12:22Z</time>
      </trkpt>
      <trkpt lat="56.861927237387" lon="14.817740330305">
        <ele>166.8</ele>
        <time>2020-02-18T06:12:28Z</time>
      </trkpt>
      <trkpt lat="56.862046428005" lon="14.817968485623">
        <ele>166.4</ele>
        <time>2020-02-18T06:12:33Z</time>
      </trkpt>
      <trkpt lat="56.862237367687" lon="14.818065548025">
        <ele>166.2</ele>
        <time>2020-02-18T06:12:40Z</time>
      </trkpt>
      <trkpt lat="56.862408693723" lon="14.818190270697">
        <ele>166.2</ele>
        <time>2020-02-18T06:12:48Z</time>
      </trkpt>
      <trkpt lat="56.862435934898" lon="14.818209884343">
        <ele>166</ele>
        <time>2020-02-18T06:12:49Z</time>
      </trkpt>
      <trkpt lat="56.862641626724" lon="14.81832580602">
        <ele>166</ele>
        <time>2020-02-18T06:12:55Z</time>
      </trkpt>
      <trkpt lat="56.862829465103" lon="14.818347263684">
        <ele>166</ele>
        <time>2020-02-18T06:13:01Z</time>
      </trkpt>
      <trkpt lat="56.863029121961" lon="14.818363776027">
        <ele>165.8</ele>
        <time>2020-02-18T06:13:07Z</time>
      </trkpt>
      <trkpt lat="56.863220732195" lon="14.818374169583">
        <ele>165.8</ele>
        <time>2020-02-18T06:13:13Z</time>
      </trkpt>
      <trkpt lat="56.863419383225" lon="14.818270569299">
        <ele>165.6</ele>
        <time>2020-02-18T06:13:20Z</time>
      </trkpt>
      <trkpt lat="56.863608562708" lon="14.818181972616">
        <ele>165.4</ele>
        <time>2020-02-18T06:13:27Z</time>
      </trkpt>
      <trkpt lat="56.863779804925" lon="14.818051634071">
        <ele>165.2</ele>
        <time>2020-02-18T06:13:34Z</time>
      </trkpt>
      <trkpt lat="56.863835879836" lon="14.818016849186">
        <ele>164.8</ele>
        <time>2020-02-18T06:13:36Z</time>
      </trkpt>
      <trkpt lat="56.86400737351" lon="14.817902855346">
        <ele>165</ele>
        <time>2020-02-18T06:13:43Z</time>
      </trkpt>
      <trkpt lat="56.864110973794" lon="14.81780361365">
        <ele>165.8</ele>
        <time>2020-02-18T06:13:47Z</time>
      </trkpt>
      <trkpt lat="56.864268134419" lon="14.81762927013">
        <ele>165.8</ele>
        <time>2020-02-18T06:13:53Z</time>
      </trkpt>
      <trkpt lat="56.864445160147" lon="14.817425422322">
        <ele>166</ele>
        <time>2020-02-18T06:13:59Z</time>
      </trkpt>
      <trkpt lat="56.864617994925" lon="14.817249653879">
        <ele>166</ele>
        <time>2020-02-18T06:14:06Z</time>
      </trkpt>
      <trkpt lat="56.864790662065" lon="14.817130714718">
        <ele>166.4</ele>
        <time>2020-02-18T06:14:12Z</time>
      </trkpt>
      <trkpt lat="56.864873139961" lon="14.817041615121">
        <ele>166.8</ele>
        <time>2020-02-18T06:14:15Z</time>
      </trkpt>
      <trkpt lat="56.865060307788" lon="14.816880095908">
        <ele>166.6</ele>
        <time>2020-02-18T06:14:22Z</time>
      </trkpt>
      <trkpt lat="56.865203303002" lon="14.816735005219">
        <ele>165.6</ele>
        <time>2020-02-18T06:14:28Z</time>
      </trkpt>
      <trkpt lat="56.865357529962" lon="14.816575497662">
        <ele>165.8</ele>
        <time>2020-02-18T06:14:35Z</time>
      </trkpt>
      <trkpt lat="56.865524665048" lon="14.816406937653">
        <ele>166</ele>
        <time>2020-02-18T06:14:41Z</time>
      </trkpt>
      <trkpt lat="56.865706133183" lon="14.816274838909">
        <ele>165.8</ele>
        <time>2020-02-18T06:14:46Z</time>
      </trkpt>
      <trkpt lat="56.865901012358" lon="14.816132346609">
        <ele>165.6</ele>
        <time>2020-02-18T06:14:52Z</time>
      </trkpt>
      <trkpt lat="56.866081726122" lon="14.815977030002">
        <ele>165.8</ele>
        <time>2020-02-18T06:14:58Z</time>
      </trkpt>
      <trkpt lat="56.866256153461" lon="14.815898910694">
        <ele>166</ele>
        <time>2020-02-18T06:15:04Z</time>
      </trkpt>
      <trkpt lat="56.866455475043" lon="14.815798160256">
        <ele>166.4</ele>
        <time>2020-02-18T06:15:11Z</time>
      </trkpt>
      <trkpt lat="56.866633925694" lon="14.815662289657">
        <ele>166.4</ele>
        <time>2020-02-18T06:15:17Z</time>
      </trkpt>
      <trkpt lat="56.866805670825" lon="14.815480234789">
        <ele>165.8</ele>
        <time>2020-02-18T06:15:23Z</time>
      </trkpt>
      <trkpt lat="56.866973392644" lon="14.815346543484">
        <ele>165.6</ele>
        <time>2020-02-18T06:15:29Z</time>
      </trkpt>
      <trkpt lat="56.867171205484" lon="14.815280326474">
        <ele>166</ele>
        <time>2020-02-18T06:15:36Z</time>
      </trkpt>
      <trkpt lat="56.867353595628" lon="14.815197178026">
        <ele>166.6</ele>
        <time>2020-02-18T06:15:42Z</time>
      </trkpt>
      <trkpt lat="56.867535399039" lon="14.815186616832">
        <ele>166</ele>
        <time>2020-02-18T06:15:48Z</time>
      </trkpt>
      <trkpt lat="56.867734972078" lon="14.815160381485">
        <ele>166</ele>
        <time>2020-02-18T06:15:55Z</time>
      </trkpt>
      <trkpt lat="56.867938903705" lon="14.815210169971">
        <ele>166.4</ele>
        <time>2020-02-18T06:16:02Z</time>
      </trkpt>
      <trkpt lat="56.868136213631" lon="14.815311171866">
        <ele>166.2</ele>
        <time>2020-02-18T06:16:09Z</time>
      </trkpt>
      <trkpt lat="56.868323381458" lon="14.815362133818">
        <ele>166.2</ele>
        <time>2020-02-18T06:16:15Z</time>
      </trkpt>
      <trkpt lat="56.868531420216" lon="14.815406222612">
        <ele>165.8</ele>
        <time>2020-02-18T06:16:22Z</time>
      </trkpt>
      <trkpt lat="56.868706350469" lon="14.815497920598">
        <ele>165.6</ele>
        <time>2020-02-18T06:16:29Z</time>
      </trkpt>
      <trkpt lat="56.868858314316" lon="14.815553157319">
        <ele>166.8</ele>
        <time>2020-02-18T06:16:35Z</time>
      </trkpt>
      <trkpt lat="56.869036178234" lon="14.815499932254">
        <ele>167.2</ele>
        <time>2020-02-18T06:16:41Z</time>
      </trkpt>
      <trkpt lat="56.869213287781" lon="14.815377807971">
        <ele>167.6</ele>
        <time>2020-02-18T06:16:47Z</time>
      </trkpt>
      <trkpt lat="56.869387547482" lon="14.815274123868">
        <ele>167.6</ele>
        <time>2020-02-18T06:16:52Z</time>
      </trkpt>
      <trkpt lat="56.869570943454" lon="14.815109419533">
        <ele>166.8</ele>
        <time>2020-02-18T06:16:58Z</time>
      </trkpt>
      <trkpt lat="56.869740006377" lon="14.814975057676">
        <ele>167.4</ele>
        <time>2020-02-18T06:17:04Z</time>
      </trkpt>
      <trkpt lat="56.869912841155" lon="14.814849329176">
        <ele>167</ele>
        <time>2020-02-18T06:17:11Z</time>
      </trkpt>
      <trkpt lat="56.870096237127" lon="14.814740113019">
        <ele>167</ele>
        <time>2020-02-18T06:17:18Z</time>
      </trkpt>
      <trkpt lat="56.870282734402" lon="14.814631483595">
        <ele>167.2</ele>
        <time>2020-02-18T06:17:25Z</time>
      </trkpt>
      <trkpt lat="56.870466968564" lon="14.81456820025">
        <ele>167.8</ele>
        <time>2020-02-18T06:17:32Z</time>
      </trkpt>
      <trkpt lat="56.870526731511" lon="14.814549927708">
        <ele>168</ele>
        <time>2020-02-18T06:17:35Z</time>
      </trkpt>
      <trkpt lat="56.87071792265" lon="14.814598961823">
        <ele>168.6</ele>
        <time>2020-02-18T06:17:42Z</time>
      </trkpt>
      <trkpt lat="56.87090735359" lon="14.814668447774">
        <ele>168.2</ele>
        <time>2020-02-18T06:17:47Z</time>
      </trkpt>
      <trkpt lat="56.871082702938" lon="14.814755451896">
        <ele>168</ele>
        <time>2020-02-18T06:17:53Z</time>
      </trkpt>
      <trkpt lat="56.871267440014" lon="14.814879336378">
        <ele>167.8</ele>
        <time>2020-02-18T06:18:01Z</time>
      </trkpt>
      <trkpt lat="56.87144128062" lon="14.815012943864">
        <ele>167.8</ele>
        <time>2020-02-18T06:18:08Z</time>
      </trkpt>
      <trkpt lat="56.871619982728" lon="14.815136325432">
        <ele>167.6</ele>
        <time>2020-02-18T06:18:16Z</time>
      </trkpt>
      <trkpt lat="56.871825255459" lon="14.815127356799">
        <ele>167.4</ele>
        <time>2020-02-18T06:18:21Z</time>
      </trkpt>
      <trkpt lat="56.872013177657" lon="14.815063319083">
        <ele>167.2</ele>
        <time>2020-02-18T06:18:26Z</time>
      </trkpt>
      <trkpt lat="56.872050393293" lon="14.815052171156">
        <ele>166.8</ele>
        <time>2020-02-18T06:18:27Z</time>
      </trkpt>
      <trkpt lat="56.87225516311" lon="14.814994168408">
        <ele>166.8</ele>
        <time>2020-02-18T06:18:33Z</time>
      </trkpt>
      <trkpt lat="56.87243705034" lon="14.814964915577">
        <ele>166.6</ele>
        <time>2020-02-18T06:18:38Z</time>
      </trkpt>
      <trkpt lat="56.872621033045" lon="14.814921497335">
        <ele>166.2</ele>
        <time>2020-02-18T06:18:44Z</time>
      </trkpt>
      <trkpt lat="56.872806608311" lon="14.814994587503">
        <ele>167.2</ele>
        <time>2020-02-18T06:18:52Z</time>
      </trkpt>
      <trkpt lat="56.872944825842" lon="14.815266747796">
        <ele>166.8</ele>
        <time>2020-02-18T06:18:59Z</time>
      </trkpt>
      <trkpt lat="56.873114391679" lon="14.815416197073">
        <ele>166.2</ele>
        <time>2020-02-18T06:19:07Z</time>
      </trkpt>
      <trkpt lat="56.87329451871" lon="14.815454502356">
        <ele>166.2</ele>
        <time>2020-02-18T06:19:12Z</time>
      </trkpt>
      <trkpt lat="56.873328297767" lon="14.815466404654">
        <ele>166.4</ele>
        <time>2020-02-18T06:19:13Z</time>
      </trkpt>
      <trkpt lat="56.873516722879" lon="14.815459699134">
        <ele>166.4</ele>
        <time>2020-02-18T06:19:19Z</time>
      </trkpt>
      <trkpt lat="56.873601715345" lon="14.815461040238">
        <ele>165.8</ele>
        <time>2020-02-18T06:19:22Z</time>
      </trkpt>
      <trkpt lat="56.873806066067" lon="14.815531029103">
        <ele>166</ele>
        <time>2020-02-18T06:19:29Z</time>
      </trkpt>
      <trkpt lat="56.874001615794" lon="14.815580649951">
        <ele>166.6</ele>
        <time>2020-02-18T06:19:35Z</time>
      </trkpt>
      <trkpt lat="56.874083339319" lon="14.815598587217">
        <ele>166.6</ele>
        <time>2020-02-18T06:19:38Z</time>
      </trkpt>
      <trkpt lat="56.874261035599" lon="14.815454334718">
        <ele>166.8</ele>
        <time>2020-02-18T06:19:44Z</time>
      </trkpt>
      <trkpt lat="56.874417358034" lon="14.815290300935">
        <ele>166</ele>
        <time>2020-02-18T06:19:50Z</time>
      </trkpt>
      <trkpt lat="56.874595641047" lon="14.815157699277">
        <ele>166.4</ele>
        <time>2020-02-18T06:19:57Z</time>
      </trkpt>
      <trkpt lat="56.874785155806" lon="14.815044375989">
        <ele>166.4</ele>
        <time>2020-02-18T06:20:04Z</time>
      </trkpt>
      <trkpt lat="56.874957236213" lon="14.814929376321">
        <ele>165.8</ele>
        <time>2020-02-18T06:20:10Z</time>
      </trkpt>
      <trkpt lat="56.875098638866" lon="14.814708429437">
        <ele>166.2</ele>
        <time>2020-02-18T06:20:16Z</time>
      </trkpt>
      <trkpt lat="56.875209028489" lon="14.814438783714">
        <ele>165.6</ele>
        <time>2020-02-18T06:20:22Z</time>
      </trkpt>
      <trkpt lat="56.875335092265" lon="14.814148853793">
        <ele>165.8</ele>
        <time>2020-02-18T06:20:29Z</time>
      </trkpt>
      <trkpt lat="56.875433328133" lon="14.813818942209">
        <ele>165.6</ele>
        <time>2020-02-18T06:20:36Z</time>
      </trkpt>
      <trkpt lat="56.875508094681" lon="14.81347603868">
        <ele>165.4</ele>
        <time>2020-02-18T06:20:43Z</time>
      </trkpt>
      <trkpt lat="56.875564840144" lon="14.813111342211">
        <ele>165.6</ele>
        <time>2020-02-18T06:20:50Z</time>
      </trkpt>
      <trkpt lat="56.875621753245" lon="14.812757374574">
        <ele>165.4</ele>
        <time>2020-02-18T06:20:57Z</time>
      </trkpt>
      <trkpt lat="56.875653939741" lon="14.812412627027">
        <ele>165.2</ele>
        <time>2020-02-18T06:21:04Z</time>
      </trkpt>
      <trkpt lat="56.875667350781" lon="14.812266698148">
        <ele>164.6</ele>
        <time>2020-02-18T06:21:07Z</time>
      </trkpt>
      <trkpt lat="56.875682689658" lon="14.811915831814">
        <ele>165</ele>
        <time>2020-02-18T06:21:14Z</time>
      </trkpt>
      <trkpt lat="56.875679001622" lon="14.811549794241">
        <ele>165.6</ele>
        <time>2020-02-18T06:21:21Z</time>
      </trkpt>
      <trkpt lat="56.875677409061" lon="14.811498832289">
        <ele>165.6</ele>
        <time>2020-02-18T06:21:22Z</time>
      </trkpt>
      <trkpt lat="56.875668608066" lon="14.811126759748">
        <ele>166</ele>
        <time>2020-02-18T06:21:29Z</time>
      </trkpt>
      <trkpt lat="56.875688556988" lon="14.810776815423">
        <ele>166</ele>
        <time>2020-02-18T06:21:36Z</time>
      </trkpt>
      <trkpt lat="56.875718983285" lon="14.810444640726">
        <ele>166.6</ele>
        <time>2020-02-18T06:21:43Z</time>
      </trkpt>
      <trkpt lat="56.87571940238" lon="14.810338274415">
        <ele>166.8</ele>
        <time>2020-02-18T06:21:45Z</time>
      </trkpt>
      <trkpt lat="56.875680258907" lon="14.810144820163">
        <ele>166.6</ele>
        <time>2020-02-18T06:21:49Z</time>
      </trkpt>
      <trkpt lat="56.875505496292" lon="14.809953796662">
        <ele>166.4</ele>
        <time>2020-02-18T06:21:56Z</time>
      </trkpt>
      <trkpt lat="56.875311706764" lon="14.809843658496">
        <ele>167.6</ele>
        <time>2020-02-18T06:22:02Z</time>
      </trkpt>
      <trkpt lat="56.875282118657" lon="14.809823290479">
        <ele>167.8</ele>
        <time>2020-02-18T06:22:03Z</time>
      </trkpt>
      <trkpt lat="56.875104757653" lon="14.809709883372">
        <ele>168.4</ele>
        <time>2020-02-18T06:22:09Z</time>
      </trkpt>
      <trkpt lat="56.874924043889" lon="14.809628327485">
        <ele>168.4</ele>
        <time>2020-02-18T06:22:16Z</time>
      </trkpt>
      <trkpt lat="56.87479823157" lon="14.809583400501">
        <ele>169.2</ele>
        <time>2020-02-18T06:22:20Z</time>
      </trkpt>
      <trkpt lat="56.874610896105" lon="14.809515674749">
        <ele>169.2</ele>
        <time>2020-02-18T06:22:27Z</time>
      </trkpt>
      <trkpt lat="56.874424231192" lon="14.809435879061">
        <ele>169.6</ele>
        <time>2020-02-18T06:22:34Z</time>
      </trkpt>
      <trkpt lat="56.874223568506" lon="14.809389694792">
        <ele>169.2</ele>
        <time>2020-02-18T06:22:41Z</time>
      </trkpt>
      <trkpt lat="56.874030114254" lon="14.809322052859">
        <ele>168.8</ele>
        <time>2020-02-18T06:22:48Z</time>
      </trkpt>
      <trkpt lat="56.87385191506" lon="14.809295230779">
        <ele>168.6</ele>
        <time>2020-02-18T06:22:54Z</time>
      </trkpt>
      <trkpt lat="56.873663406129" lon="14.809248040682">
        <ele>168.8</ele>
        <time>2020-02-18T06:23:00Z</time>
      </trkpt>
      <trkpt lat="56.873476992673" lon="14.809192468685">
        <ele>168.4</ele>
        <time>2020-02-18T06:23:06Z</time>
      </trkpt>
      <trkpt lat="56.873414715156" lon="14.809168915546">
        <ele>168</ele>
        <time>2020-02-18T06:23:08Z</time>
      </trkpt>
      <trkpt lat="56.873207766045" lon="14.809109236418">
        <ele>167.8</ele>
        <time>2020-02-18T06:23:15Z</time>
      </trkpt>
      <trkpt lat="56.873019760028" lon="14.809051820403">
        <ele>167.4</ele>
        <time>2020-02-18T06:23:22Z</time>
      </trkpt>
      <trkpt lat="56.872993273224" lon="14.809042767951">
        <ele>166</ele>
        <time>2020-02-18T06:23:23Z</time>
      </trkpt>
      <trkpt lat="56.872968546619" lon="14.80902105883">
        <ele>164.4</ele>
        <time>2020-02-18T06:23:24Z</time>
      </trkpt>
      <trkpt lat="56.872790682701" lon="14.809018460441">
        <ele>163.4</ele>
        <time>2020-02-18T06:23:30Z</time>
      </trkpt>
      <trkpt lat="56.872760088766" lon="14.809033296404">
        <ele>163.2</ele>
        <time>2020-02-18T06:23:31Z</time>
      </trkpt>
      <trkpt lat="56.872565209591" lon="14.808988201782">
        <ele>163.2</ele>
        <time>2020-02-18T06:23:37Z</time>
      </trkpt>
      <trkpt lat="56.872364379267" lon="14.808958865132">
        <ele>162.6</ele>
        <time>2020-02-18T06:23:43Z</time>
      </trkpt>
      <trkpt lat="56.872275866403" lon="14.808925756627">
        <ele>162.2</ele>
        <time>2020-02-18T06:23:46Z</time>
      </trkpt>
      <trkpt lat="56.872064391066" lon="14.808876471055">
        <ele>162.2</ele>
        <time>2020-02-18T06:23:53Z</time>
      </trkpt>
      <trkpt lat="56.871869428072" lon="14.808852079726">
        <ele>162.8</ele>
        <time>2020-02-18T06:23:59Z</time>
      </trkpt>
      <trkpt lat="56.871718972967" lon="14.808645130615">
        <ele>162.4</ele>
        <time>2020-02-18T06:24:06Z</time>
      </trkpt>
      <trkpt lat="56.871582850911" lon="14.808411275605">
        <ele>162.8</ele>
        <time>2020-02-18T06:24:13Z</time>
      </trkpt>
      <trkpt lat="56.871457709144" lon="14.8082272929">
        <ele>163.4</ele>
        <time>2020-02-18T06:24:19Z</time>
      </trkpt>
      <trkpt lat="56.871301805804" lon="14.808014895554">
        <ele>163.2</ele>
        <time>2020-02-18T06:24:26Z</time>
      </trkpt>
      <trkpt lat="56.871110111751" lon="14.807855052721">
        <ele>163.6</ele>
        <time>2020-02-18T06:24:34Z</time>
      </trkpt>
      <trkpt lat="56.870915400214" lon="14.807807946443">
        <ele>164</ele>
        <time>2020-02-18T06:24:40Z</time>
      </trkpt>
      <trkpt lat="56.870728400025" lon="14.807743238175">
        <ele>163.6</ele>
        <time>2020-02-18T06:24:46Z</time>
      </trkpt>
      <trkpt lat="56.870545171691" lon="14.8076573237">
        <ele>162.8</ele>
        <time>2020-02-18T06:24:53Z</time>
      </trkpt>
      <trkpt lat="56.870356243665" lon="14.807540731471">
        <ele>162.4</ele>
        <time>2020-02-18T06:25:00Z</time>
      </trkpt>
      <trkpt lat="56.870333696354" lon="14.807512568287">
        <ele>162.2</ele>
        <time>2020-02-18T06:25:01Z</time>
      </trkpt>
      <trkpt lat="56.87020159761" lon="14.807275779612">
        <ele>162</ele>
        <time>2020-02-18T06:25:08Z</time>
      </trkpt>
      <trkpt lat="56.870054495265" lon="14.807029938485">
        <ele>162.4</ele>
        <time>2020-02-18T06:25:15Z</time>
      </trkpt>
      <trkpt lat="56.869910661861" lon="14.806819301338">
        <ele>163</ele>
        <time>2020-02-18T06:25:22Z</time>
      </trkpt>
      <trkpt lat="56.869868417085" lon="14.806746127351">
        <ele>163.4</ele>
        <time>2020-02-18T06:25:24Z</time>
      </trkpt>
      <trkpt lat="56.869733719952" lon="14.806482432777">
        <ele>163.6</ele>
        <time>2020-02-18T06:25:31Z</time>
      </trkpt>
      <trkpt lat="56.869642776337" lon="14.806195855616">
        <ele>163.4</ele>
        <time>2020-02-18T06:25:38Z</time>
      </trkpt>
      <trkpt lat="56.869578151888" lon="14.80585186244">
        <ele>163.4</ele>
        <time>2020-02-18T06:25:45Z</time>
      </trkpt>
      <trkpt lat="56.8695235019" lon="14.805531254765">
        <ele>163</ele>
        <time>2020-02-18T06:25:51Z</time>
      </trkpt>
      <trkpt lat="56.869474719242" lon="14.805186004304">
        <ele>162.8</ele>
        <time>2020-02-18T06:25:58Z</time>
      </trkpt>
      <trkpt lat="56.869485028979" lon="14.804824660595">
        <ele>163.2</ele>
        <time>2020-02-18T06:26:05Z</time>
      </trkpt>
      <trkpt lat="56.86953858932" lon="14.804562055668">
        <ele>163.2</ele>
        <time>2020-02-18T06:26:11Z</time>
      </trkpt>
      <trkpt lat="56.8695821752" lon="14.804242034726">
        <ele>163</ele>
        <time>2020-02-18T06:26:18Z</time>
      </trkpt>
      <trkpt lat="56.86956876416" lon="14.803873817859">
        <ele>162.6</ele>
        <time>2020-02-18T06:26:26Z</time>
      </trkpt>
      <trkpt lat="56.869493243241" lon="14.803542481352">
        <ele>162.8</ele>
        <time>2020-02-18T06:26:33Z</time>
      </trkpt>
      <trkpt lat="56.869408250775" lon="14.803201673298">
        <ele>163</ele>
        <time>2020-02-18T06:26:40Z</time>
      </trkpt>
      <trkpt lat="56.86926114843" lon="14.802943929873">
        <ele>163</ele>
        <time>2020-02-18T06:26:47Z</time>
      </trkpt>
      <trkpt lat="56.869140197613" lon="14.802665818431">
        <ele>162.6</ele>
        <time>2020-02-18T06:26:53Z</time>
      </trkpt>
      <trkpt lat="56.869021845185" lon="14.802408158825">
        <ele>163.4</ele>
        <time>2020-02-18T06:26:59Z</time>
      </trkpt>
      <trkpt lat="56.868909024811" lon="14.802145553898">
        <ele>163.2</ele>
        <time>2020-02-18T06:27:05Z</time>
      </trkpt>
      <trkpt lat="56.868819087024" lon="14.801849589009">
        <ele>163.6</ele>
        <time>2020-02-18T06:27:12Z</time>
      </trkpt>
      <trkpt lat="56.86872051588" lon="14.801544990763">
        <ele>164</ele>
        <time>2020-02-18T06:27:19Z</time>
      </trkpt>
      <trkpt lat="56.868609288067" lon="14.801227987305">
        <ele>164.4</ele>
        <time>2020-02-18T06:27:26Z</time>
      </trkpt>
      <trkpt lat="56.868480709721" lon="14.800928418199">
        <ele>163.6</ele>
        <time>2020-02-18T06:27:33Z</time>
      </trkpt>
      <trkpt lat="56.868378031446" lon="14.800617449709">
        <ele>164</ele>
        <time>2020-02-18T06:27:40Z</time>
      </trkpt>
      <trkpt lat="56.86829722993" lon="14.800289717419">
        <ele>164.2</ele>
        <time>2020-02-18T06:27:47Z</time>
      </trkpt>
      <trkpt lat="56.868213830025" lon="14.799982688422">
        <ele>163.8</ele>
        <time>2020-02-18T06:27:54Z</time>
      </trkpt>
      <trkpt lat="56.868149540852" lon="14.799711785414">
        <ele>162.2</ele>
        <time>2020-02-18T06:28:00Z</time>
      </trkpt>
      <trkpt lat="56.868102015479" lon="14.799410288471">
        <ele>163.2</ele>
        <time>2020-02-18T06:28:06Z</time>
      </trkpt>
      <trkpt lat="56.868112744311" lon="14.799037880654">
        <ele>164.4</ele>
        <time>2020-02-18T06:28:13Z</time>
      </trkpt>
      <trkpt lat="56.868154150897" lon="14.798695228582">
        <ele>164.8</ele>
        <time>2020-02-18T06:28:20Z</time>
      </trkpt>
      <trkpt lat="56.868184158099" lon="14.798348720836">
        <ele>164.2</ele>
        <time>2020-02-18T06:28:27Z</time>
      </trkpt>
      <trkpt lat="56.86822179283" lon="14.798020737089">
        <ele>165</ele>
        <time>2020-02-18T06:28:34Z</time>
      </trkpt>
      <trkpt lat="56.868289770039" lon="14.797676911551">
        <ele>165</ele>
        <time>2020-02-18T06:28:41Z</time>
      </trkpt>
      <trkpt lat="56.868367134976" lon="14.797371391296">
        <ele>164.6</ele>
        <time>2020-02-18T06:28:48Z</time>
      </trkpt>
      <trkpt lat="56.86843050214" lon="14.797053717286">
        <ele>165.2</ele>
        <time>2020-02-18T06:28:54Z</time>
      </trkpt>
      <trkpt lat="56.868440728058" lon="14.797002839153">
        <ele>165.4</ele>
        <time>2020-02-18T06:28:55Z</time>
      </trkpt>
      <trkpt lat="56.86851096838" lon="14.796653649199">
        <ele>165.4</ele>
        <time>2020-02-18T06:29:02Z</time>
      </trkpt>
      <trkpt lat="56.868595877027" lon="14.796321223045">
        <ele>165.4</ele>
        <time>2020-02-18T06:29:09Z</time>
      </trkpt>
      <trkpt lat="56.868652873947" lon="14.795975050575">
        <ele>165.2</ele>
        <time>2020-02-18T06:29:16Z</time>
      </trkpt>
      <trkpt lat="56.868736106214" lon="14.795637846738">
        <ele>165</ele>
        <time>2020-02-18T06:29:23Z</time>
      </trkpt>
      <trkpt lat="56.8688110404" lon="14.795284298196">
        <ele>165</ele>
        <time>2020-02-18T06:29:30Z</time>
      </trkpt>
      <trkpt lat="56.868887148052" lon="14.794982298339">
        <ele>164.8</ele>
        <time>2020-02-18T06:29:36Z</time>
      </trkpt>
      <trkpt lat="56.868953784157" lon="14.794673257686">
        <ele>164.6</ele>
        <time>2020-02-18T06:29:42Z</time>
      </trkpt>
      <trkpt lat="56.868965351179" lon="14.794625229399">
        <ele>164.2</ele>
        <time>2020-02-18T06:29:43Z</time>
      </trkpt>
      <trkpt lat="56.869057719717" lon="14.79431250071">
        <ele>165</ele>
        <time>2020-02-18T06:29:50Z</time>
      </trkpt>
      <trkpt lat="56.869073226232" lon="14.794270423572">
        <ele>165.4</ele>
        <time>2020-02-18T06:29:51Z</time>
      </trkpt>
      <trkpt lat="56.869142460726" lon="14.793940931083">
        <ele>165.4</ele>
        <time>2020-02-18T06:29:58Z</time>
      </trkpt>
      <trkpt lat="56.869174228127" lon="14.793584784152">
        <ele>165.6</ele>
        <time>2020-02-18T06:30:05Z</time>
      </trkpt>
      <trkpt lat="56.869212114315" lon="14.793354365721">
        <ele>165.4</ele>
        <time>2020-02-18T06:30:10Z</time>
      </trkpt>
      <trkpt lat="56.869253185625" lon="14.793338607749">
        <ele>165.2</ele>
        <time>2020-02-18T06:30:12Z</time>
      </trkpt>
      <trkpt lat="56.869411435897" lon="14.793525775576">
        <ele>165.8</ele>
        <time>2020-02-18T06:30:20Z</time>
      </trkpt>
      <trkpt lat="56.869533979275" lon="14.793684193486">
        <ele>166.4</ele>
        <time>2020-02-18T06:30:25Z</time>
      </trkpt>
      <trkpt lat="56.869672364444" lon="14.79369475468">
        <ele>166.8</ele>
        <time>2020-02-18T06:30:30Z</time>
      </trkpt>
      <trkpt lat="56.86977076795" lon="14.793461486403">
        <ele>167.6</ele>
        <time>2020-02-18T06:30:36Z</time>
      </trkpt>
      <trkpt lat="56.869855760416" lon="14.793150517913">
        <ele>167.8</ele>
        <time>2020-02-18T06:30:43Z</time>
      </trkpt>
      <trkpt lat="56.869968161695" lon="14.792886152787">
        <ele>167.8</ele>
        <time>2020-02-18T06:30:50Z</time>
      </trkpt>
      <trkpt lat="56.870081820259" lon="14.792594043572">
        <ele>167.6</ele>
        <time>2020-02-18T06:30:57Z</time>
      </trkpt>
      <trkpt lat="56.87024937444" lon="14.792505698346">
        <ele>168.4</ele>
        <time>2020-02-18T06:31:04Z</time>
      </trkpt>
      <trkpt lat="56.870411648024" lon="14.792587086595">
        <ele>168.6</ele>
        <time>2020-02-18T06:31:10Z</time>
      </trkpt>
      <trkpt lat="56.870602755344" lon="14.792659003297">
        <ele>169.2</ele>
        <time>2020-02-18T06:31:17Z</time>
      </trkpt>
      <trkpt lat="56.870705601257" lon="14.792699404055">
        <ele>169.6</ele>
        <time>2020-02-18T06:31:21Z</time>
      </trkpt>
      <trkpt lat="56.870898720233" lon="14.792787078729">
        <ele>169.8</ele>
        <time>2020-02-18T06:31:28Z</time>
      </trkpt>
      <trkpt lat="56.871083708766" lon="14.792877267973">
        <ele>170</ele>
        <time>2020-02-18T06:31:35Z</time>
      </trkpt>
      <trkpt lat="56.871127127008" lon="14.79291272341">
        <ele>170.2</ele>
        <time>2020-02-18T06:31:37Z</time>
      </trkpt>
      <trkpt lat="56.871178591874" lon="14.792963517724">
        <ele>171</ele>
        <time>2020-02-18T06:31:40Z</time>
      </trkpt>
      <trkpt lat="56.871353354489" lon="14.793051360036">
        <ele>171.6</ele>
        <time>2020-02-18T06:31:47Z</time>
      </trkpt>
      <trkpt lat="56.871534654986" lon="14.793095867925">
        <ele>171.8</ele>
        <time>2020-02-18T06:31:54Z</time>
      </trkpt>
      <trkpt lat="56.871685780643" lon="14.793041134118">
        <ele>172</ele>
        <time>2020-02-18T06:31:59Z</time>
      </trkpt>
      <trkpt lat="56.871856017032" lon="14.792866203865">
        <ele>172.6</ele>
        <time>2020-02-18T06:32:05Z</time>
      </trkpt>
      <trkpt lat="56.872060619211" lon="14.792829239686">
        <ele>172</ele>
        <time>2020-02-18T06:32:12Z</time>
      </trkpt>
      <trkpt lat="56.872252480902" lon="14.792808704031">
        <ele>172</ele>
        <time>2020-02-18T06:32:19Z</time>
      </trkpt>
      <trkpt lat="56.872441408928" lon="14.792839465604">
        <ele>171.8</ele>
        <time>2020-02-18T06:32:26Z</time>
      </trkpt>
      <trkpt lat="56.872628744393" lon="14.792891433384">
        <ele>172</ele>
        <time>2020-02-18T06:32:32Z</time>
      </trkpt>
      <trkpt lat="56.872822282464" lon="14.79281716975">
        <ele>172</ele>
        <time>2020-02-18T06:32:38Z</time>
      </trkpt>
      <trkpt lat="56.872996206889" lon="14.792725136488">
        <ele>171.2</ele>
        <time>2020-02-18T06:32:44Z</time>
      </trkpt>
      <trkpt lat="56.87320399419" lon="14.792722705737">
        <ele>172.2</ele>
        <time>2020-02-18T06:32:51Z</time>
      </trkpt>
      <trkpt lat="56.873251351925" lon="14.792715581122">
        <ele>172</ele>
        <time>2020-02-18T06:32:53Z</time>
      </trkpt>
    </trkseg>
  </trk>
</gpx>